createdAt,value
2023-06-11T00:00:20.104Z,101014.72
2023-06-11T00:02:47.175Z,101022.22
2023-06-11T00:05:16.786Z,101021.59
2023-06-11T00:07:44.723Z,101025.16
2023-06-11T00:10:11.996Z,101024.22
2023-06-11T00:12:49.916Z,101019.63
2023-06-11T00:15:17.037Z,101029.19
2023-06-11T00:17:44.559Z,101034.25
2023-06-11T00:20:12.818Z,101021.31
2023-06-11T00:22:41.032Z,101027.03
2023-06-11T00:25:11.804Z,101034.34
2023-06-11T00:27:40.201Z,101023.66
2023-06-11T00:30:10.868Z,101024.31
2023-06-11T00:32:38.445Z,101023.94
2023-06-11T00:35:08.891Z,101023.47
2023-06-11T00:37:37.305Z,101020.56
2023-06-11T00:40:04.608Z,101017.19
2023-06-11T00:42:34.879Z,101026.00
2023-06-11T00:45:04.969Z,101020.63
2023-06-11T00:47:33.157Z,101021.19
2023-06-11T00:50:03.500Z,101017.16
2023-06-11T00:52:30.618Z,101014.63
2023-06-11T00:54:59.614Z,101020.34
2023-06-11T00:57:29.990Z,101015.75
2023-06-11T00:59:57.208Z,101016.44
2023-06-11T01:02:30.053Z,101014.56
2023-06-11T01:04:59.922Z,101012.88
2023-06-11T01:07:31.754Z,101011.63
2023-06-11T01:10:02.218Z,101005.38
2023-06-11T01:12:31.014Z,101009.28
2023-06-11T01:14:58.565Z,101011.44
2023-06-11T01:17:55.888Z,101004.31
2023-06-11T01:20:36.297Z,101004.69
2023-06-11T01:23:23.157Z,101000.84
2023-06-11T01:26:02.958Z,101000.66
2023-06-11T01:28:32.299Z,100999.44
2023-06-11T01:31:04.328Z,100995.03
2023-06-11T01:33:36.907Z,101002.72
2023-06-11T01:36:07.141Z,101002.81
2023-06-11T01:38:42.775Z,100992.50
2023-06-11T01:41:16.112Z,100993.06
2023-06-11T01:43:44.404Z,100981.16
2023-06-11T01:46:11.432Z,100984.81
2023-06-11T01:48:38.472Z,100990.34
2023-06-11T01:51:05.935Z,100980.88
2023-06-11T01:53:33.416Z,100982.94
2023-06-11T01:56:02.236Z,100978.50
2023-06-11T01:58:32.284Z,100985.81
2023-06-11T02:00:59.695Z,100980.03
2023-06-11T02:03:27.269Z,100974.66
2023-06-11T02:05:54.550Z,100975.88
2023-06-11T02:08:22.248Z,100974.66
2023-06-11T02:10:49.199Z,100974.88
2023-06-11T02:13:16.366Z,100972.16
2023-06-11T02:15:43.335Z,100976.41
2023-06-11T02:18:10.488Z,100975.56
2023-06-11T02:20:37.876Z,100973.88
2023-06-11T02:23:05.112Z,100976.31
2023-06-11T02:25:32.185Z,100972.28
2023-06-11T02:27:59.604Z,100981.44
2023-06-11T02:30:28.633Z,100984.16
2023-06-11T02:32:56.099Z,100980.88
2023-06-11T02:35:23.331Z,100972.91
2023-06-11T02:37:50.591Z,100967.28
2023-06-11T02:40:17.649Z,100967.47
2023-06-11T02:42:44.688Z,100969.06
2023-06-11T02:45:12.006Z,100965.31
2023-06-11T02:47:39.245Z,100966.34
2023-06-11T02:50:06.968Z,100970.38
2023-06-11T02:52:34.024Z,100971.09
2023-06-11T02:55:01.076Z,100968.38
2023-06-11T02:57:28.030Z,100966.88
2023-06-11T02:59:55.022Z,100968.09
2023-06-11T03:02:22.165Z,100964.72
2023-06-11T03:04:49.255Z,100959.63
2023-06-11T03:07:16.838Z,100950.84
2023-06-11T03:09:43.873Z,100955.44
2023-06-11T03:12:11.007Z,100955.13
2023-06-11T03:14:39.367Z,100953.34
2023-06-11T03:17:06.339Z,100952.28
2023-06-11T03:19:33.302Z,100956.53
2023-06-11T03:22:01.124Z,100959.41
2023-06-11T03:24:28.470Z,100950.94
2023-06-11T03:27:03.831Z,100951.94
2023-06-11T03:29:30.939Z,100948.72
2023-06-11T03:31:58.994Z,100947.22
2023-06-11T03:34:26.541Z,100948.47
2023-06-11T03:36:56.712Z,100948.25
2023-06-11T03:39:23.804Z,100944.22
2023-06-11T03:41:53.857Z,100952.75
2023-06-11T03:44:22.459Z,100943.53
2023-06-11T03:46:49.657Z,100939.50
2023-06-11T03:49:16.657Z,100944.25
2023-06-11T03:51:44.189Z,100939.50
2023-06-11T03:54:11.181Z,100941.53
2023-06-11T03:56:38.172Z,100944.59
2023-06-11T03:59:05.573Z,100939.50
2023-06-11T04:01:32.470Z,100939.00
2023-06-11T04:04:00.189Z,100942.44
2023-06-11T04:06:29.166Z,100953.75
2023-06-11T04:08:58.229Z,100942.75
2023-06-11T04:11:26.065Z,100949.53
2023-06-11T04:13:53.177Z,100953.44
2023-06-11T04:16:20.647Z,100949.19
2023-06-11T04:18:49.162Z,100947.31
2023-06-11T04:21:16.440Z,100944.97
2023-06-11T04:23:43.563Z,100941.25
2023-06-11T04:26:11.541Z,100942.75
2023-06-11T04:28:45.366Z,100938.66
2023-06-11T04:31:15.844Z,100941.53
2023-06-11T04:33:47.321Z,100946.97
2023-06-11T04:36:14.856Z,100943.28
2023-06-11T04:38:46.239Z,100957.84
2023-06-11T04:41:15.663Z,100949.69
2023-06-11T04:43:47.385Z,100955.81
2023-06-11T04:46:15.683Z,100952.75
2023-06-11T04:48:42.688Z,100947.69
2023-06-11T04:51:13.354Z,100945.66
2023-06-11T04:53:44.508Z,100943.97
2023-06-11T04:56:13.402Z,100950.03
2023-06-11T04:58:41.339Z,100943.06
2023-06-11T05:01:10.053Z,100950.03
2023-06-11T05:03:38.639Z,100952.75
2023-06-11T05:06:09.873Z,100944.94
2023-06-11T05:08:40.808Z,100954.13
2023-06-11T05:11:08.042Z,100946.63
2023-06-11T05:13:35.682Z,100952.53
2023-06-11T05:16:07.180Z,100958.47
2023-06-11T05:18:36.990Z,100957.44
2023-06-11T05:21:07.938Z,100953.50
2023-06-11T05:23:36.013Z,100957.72
2023-06-11T05:26:13.483Z,100957.94
2023-06-11T05:28:44.835Z,100961.13
2023-06-11T05:31:14.337Z,100960.75
2023-06-11T05:33:45.600Z,100976.50
2023-06-11T05:36:13.702Z,100974.28
2023-06-11T05:38:42.220Z,100975.59
2023-06-11T05:41:10.363Z,100973.91
2023-06-11T05:43:38.080Z,100973.53
2023-06-11T05:46:05.325Z,100966.88
2023-06-11T05:48:39.661Z,100973.16
2023-06-11T05:51:11.768Z,100969.06
2023-06-11T05:53:43.772Z,100972.78
2023-06-11T05:56:11.114Z,100971.59
2023-06-11T05:58:40.147Z,100974.41
2023-06-11T06:01:07.614Z,100972.72
2023-06-11T06:03:39.103Z,100977.50
2023-06-11T06:06:06.526Z,100980.88
2023-06-11T06:08:33.626Z,100978.44
2023-06-11T06:11:04.136Z,100976.84
2023-06-11T06:13:31.536Z,100977.31
2023-06-11T06:16:02.736Z,100973.59
2023-06-11T06:18:31.241Z,100981.72
2023-06-11T06:21:06.889Z,100979.31
2023-06-11T06:23:34.079Z,100983.72
2023-06-11T06:26:14.186Z,100985.78
2023-06-11T06:28:41.283Z,100992.22
2023-06-11T06:31:09.379Z,100986.88
2023-06-11T06:33:39.284Z,100991.66
2023-06-11T06:36:08.388Z,100994.28
2023-06-11T06:38:42.803Z,100995.88
2023-06-11T06:41:11.122Z,100996.72
2023-06-11T06:43:38.573Z,100998.97
2023-06-11T06:46:12.521Z,101003.88
2023-06-11T06:48:42.734Z,101003.97
2023-06-11T06:51:10.171Z,101001.41
2023-06-11T06:53:41.274Z,100984.34
2023-06-11T06:56:14.743Z,100992.47
2023-06-11T06:58:42.667Z,100998.44
2023-06-11T07:01:09.978Z,100991.84
2023-06-11T07:03:37.303Z,100994.09
2023-06-11T07:06:04.849Z,100993.34
2023-06-11T07:08:33.026Z,100997.69
2023-06-11T07:11:00.653Z,100999.47
2023-06-11T07:13:41.704Z,100995.84
2023-06-11T07:16:10.555Z,101008.53
2023-06-11T07:18:40.598Z,101012.38
2023-06-11T07:21:08.165Z,101016.06
2023-06-11T07:23:35.223Z,101009.16
2023-06-11T07:26:03.565Z,101009.25
2023-06-11T07:28:30.683Z,101021.53
2023-06-11T07:30:59.174Z,101018.25
2023-06-11T07:33:26.769Z,101018.38
2023-06-11T07:35:55.902Z,101023.44
2023-06-11T07:38:24.128Z,101021.34
2023-06-11T07:40:51.145Z,101025.13
2023-06-11T07:43:18.172Z,101023.03
2023-06-11T07:45:45.791Z,101034.00
2023-06-11T07:48:13.899Z,101039.25
2023-06-11T07:50:40.883Z,101037.56
2023-06-11T07:53:10.174Z,101039.25
2023-06-11T07:55:37.752Z,101040.72
2023-06-11T07:58:04.696Z,101039.84
2023-06-11T08:00:31.724Z,101036.50
2023-06-11T08:02:58.763Z,101039.38
2023-06-11T08:05:25.869Z,101035.84
2023-06-11T08:07:52.860Z,101031.47
2023-06-11T08:10:19.869Z,101039.88
2023-06-11T08:12:46.833Z,101043.78
2023-06-11T08:15:13.922Z,101048.91
2023-06-11T08:17:44.185Z,101046.41
2023-06-11T08:20:11.862Z,101054.06
2023-06-11T08:22:40.872Z,101056.84
2023-06-11T08:25:09.488Z,101054.16
2023-06-11T08:27:37.003Z,101052.25
2023-06-11T08:30:04.900Z,101054.56
2023-06-11T08:32:32.068Z,101054.97
2023-06-11T08:34:59.329Z,101041.09
2023-06-11T08:37:27.194Z,101040.69
2023-06-11T08:39:54.247Z,101044.06
2023-06-11T08:42:21.399Z,101041.13
2023-06-11T08:44:49.606Z,101035.44
2023-06-11T08:47:18.082Z,101045.97
2023-06-11T08:49:46.626Z,101047.03
2023-06-11T08:52:15.100Z,101037.34
2023-06-11T08:54:42.452Z,101038.19
2023-06-11T08:57:09.993Z,101033.78
2023-06-11T08:59:37.160Z,101029.78
2023-06-11T09:02:04.693Z,101032.94
2023-06-11T09:04:31.870Z,101031.69
2023-06-11T09:07:01.097Z,101025.16
2023-06-11T09:09:28.620Z,101028.72
2023-06-11T09:11:55.766Z,101035.25
2023-06-11T09:14:23.008Z,101039.88
2023-06-11T09:16:50.255Z,101041.53
2023-06-11T09:19:22.063Z,101046.16
2023-06-11T09:21:57.552Z,101047.22
2023-06-11T09:24:26.300Z,101052.47
2023-06-11T09:26:59.927Z,101064.66
2023-06-11T09:29:28.840Z,101057.53
2023-06-11T09:32:19.531Z,101060.06
2023-06-11T09:34:57.135Z,101066.78
2023-06-11T09:37:24.645Z,101075.56
2023-06-11T09:39:51.880Z,101078.13
2023-06-11T09:42:28.527Z,101076.41
2023-06-11T09:45:00.588Z,101082.28
2023-06-11T09:47:32.362Z,101083.56
2023-06-11T09:50:00.428Z,101081.84
2023-06-11T09:52:30.878Z,101085.88
2023-06-11T09:54:58.884Z,101094.72
2023-06-11T09:57:26.414Z,101094.50
2023-06-11T09:59:53.449Z,101081.25
2023-06-11T10:02:20.448Z,101095.78
2023-06-11T10:04:47.543Z,101091.78
2023-06-11T10:07:15.793Z,101095.78
2023-06-11T10:09:44.843Z,101094.94
2023-06-11T10:12:13.455Z,101100.41
2023-06-11T10:14:43.048Z,101100.41
2023-06-11T10:17:10.117Z,101105.88
2023-06-11T10:19:37.948Z,101104.19
2023-06-11T10:22:05.145Z,101102.91
2023-06-11T10:24:32.445Z,101093.66
2023-06-11T10:27:13.963Z,101100.41
2023-06-11T10:29:43.044Z,101095.78
2023-06-11T10:32:24.107Z,101081.06
2023-06-11T10:34:57.229Z,101082.75
2023-06-11T10:37:30.500Z,101091.81
2023-06-11T10:39:57.730Z,101083.59
2023-06-11T10:42:27.126Z,101088.66
2023-06-11T10:45:00.752Z,101081.09
2023-06-11T10:47:47.103Z,101095.38
2023-06-11T10:50:25.172Z,101097.28
2023-06-11T10:53:00.197Z,101112.63
2023-06-11T10:55:30.958Z,101096.22
2023-06-11T10:57:59.920Z,101096.22
2023-06-11T11:00:35.470Z,101094.13
2023-06-11T11:03:05.236Z,101089.91
2023-06-11T11:05:33.203Z,101089.06
2023-06-11T11:08:03.271Z,101088.88
2023-06-11T11:10:31.124Z,101093.72
2023-06-11T11:12:58.258Z,101098.78
2023-06-11T11:15:25.357Z,101103.81
2023-06-11T11:17:52.664Z,101091.63
2023-06-11T11:20:21.169Z,101094.16
2023-06-11T11:22:55.910Z,101093.72
2023-06-11T11:25:26.659Z,101097.53
2023-06-11T11:27:53.785Z,101089.09
2023-06-11T11:30:21.110Z,101091.63
2023-06-11T11:32:48.613Z,101091.63
2023-06-11T11:35:18.579Z,101097.53
2023-06-11T11:37:52.447Z,101087.03
2023-06-11T11:40:21.026Z,101095.88
2023-06-11T11:42:56.913Z,101081.56
2023-06-11T11:45:34.476Z,101083.25
2023-06-11T11:48:05.419Z,101077.78
2023-06-11T11:50:33.172Z,101073.16
2023-06-11T11:53:06.097Z,101074.38
2023-06-11T11:55:34.941Z,101066.81
2023-06-11T11:58:11.663Z,101069.75
2023-06-11T12:00:49.569Z,101060.50
2023-06-11T12:03:19.999Z,101063.41
2023-06-11T12:06:06.154Z,101061.75
2023-06-11T12:08:34.511Z,101060.47
2023-06-11T12:11:03.330Z,101062.38
2023-06-11T12:13:30.675Z,101048.69
2023-06-11T12:15:59.139Z,101051.00
2023-06-11T12:18:27.268Z,101041.94
2023-06-11T12:20:54.512Z,101031.84
2023-06-11T12:23:22.769Z,101031.44
2023-06-11T12:25:49.751Z,101031.44
2023-06-11T12:28:17.199Z,101031.00
2023-06-11T12:30:44.420Z,101025.13
2023-06-11T12:33:16.546Z,101025.75
2023-06-11T12:35:44.582Z,101024.72
2023-06-11T12:38:12.077Z,101018.16
2023-06-11T12:40:39.165Z,101016.50
2023-06-11T12:43:08.738Z,101020.50
2023-06-11T12:45:38.784Z,101011.66
2023-06-11T12:48:07.141Z,100996.50
2023-06-11T12:50:34.239Z,100995.66
2023-06-11T12:53:01.858Z,100997.38
2023-06-11T12:55:28.898Z,100992.31
2023-06-11T12:57:56.152Z,100994.59
2023-06-11T13:00:24.501Z,100985.16
2023-06-11T13:02:51.688Z,100979.69
2023-06-11T13:05:19.354Z,100973.16
2023-06-11T13:07:46.637Z,100975.91
2023-06-11T13:10:13.941Z,100980.72
2023-06-11T13:12:41.524Z,100973.78
2023-06-11T13:15:09.346Z,100979.06
2023-06-11T13:17:36.404Z,100974.44
2023-06-11T13:20:03.856Z,100968.31
2023-06-11T13:22:31.003Z,100964.94
2023-06-11T13:24:58.076Z,100970.00
2023-06-11T13:27:25.019Z,100960.09
2023-06-11T13:29:52.027Z,100970.00
2023-06-11T13:32:20.058Z,100958.63
2023-06-11T13:34:47.301Z,100966.63
2023-06-11T13:37:14.453Z,100968.97
2023-06-11T13:39:41.762Z,100964.75
2023-06-11T13:42:08.930Z,100962.00
2023-06-11T13:44:36.080Z,100956.94
2023-06-11T13:47:05.785Z,100953.16
2023-06-11T13:49:34.138Z,100956.53
2023-06-11T13:52:02.064Z,100950.44
2023-06-11T13:54:44.527Z,100946.00
2023-06-11T13:57:11.816Z,100950.22
2023-06-11T13:59:38.811Z,100950.84
2023-06-11T14:02:06.164Z,100948.09
2023-06-11T14:04:33.258Z,100947.28
2023-06-11T14:07:02.195Z,100954.84
2023-06-11T14:09:29.172Z,100947.69
2023-06-11T14:11:56.184Z,100954.84
2023-06-11T14:14:24.511Z,100956.09
2023-06-11T14:16:52.098Z,100962.84
2023-06-11T14:19:19.058Z,100976.94
2023-06-11T14:21:46.385Z,100969.78
2023-06-11T14:24:14.552Z,100975.06
2023-06-11T14:26:41.713Z,100967.50
2023-06-11T14:29:08.715Z,100963.69
2023-06-11T14:31:36.165Z,100956.53
2023-06-11T14:34:03.695Z,100954.84
2023-06-11T14:36:31.175Z,100961.16
2023-06-11T14:38:59.100Z,100956.53
2023-06-11T14:41:26.445Z,100964.94
2023-06-11T14:43:53.345Z,100959.47
2023-06-11T14:46:20.514Z,100952.31
2023-06-11T14:48:47.601Z,100953.41
2023-06-11T14:51:14.672Z,100959.91
2023-06-11T14:53:41.874Z,100952.31
2023-06-11T14:56:08.877Z,100950.03
2023-06-11T14:58:35.964Z,100943.47
2023-06-11T15:01:05.459Z,100942.44
2023-06-11T15:03:33.099Z,100935.06
2023-06-11T15:06:01.205Z,100945.81
2023-06-11T15:08:28.677Z,100944.53
2023-06-11T15:10:55.665Z,100924.53
2023-06-11T15:13:24.408Z,100933.19
2023-06-11T15:15:52.240Z,100938.88
2023-06-11T15:18:19.293Z,100936.78
2023-06-11T15:20:46.357Z,100927.28
2023-06-11T15:23:13.494Z,100926.88
2023-06-11T15:25:43.647Z,100930.03
2023-06-11T15:28:11.008Z,100927.94
2023-06-11T15:30:46.141Z,100922.88
2023-06-11T15:33:13.750Z,100927.06
2023-06-11T15:35:42.062Z,100927.06
2023-06-11T15:38:09.098Z,100934.03
2023-06-11T15:40:36.823Z,100934.69
2023-06-11T15:43:03.919Z,100942.25
2023-06-11T15:45:34.004Z,100944.53
2023-06-11T15:48:01.206Z,100945.16
2023-06-11T15:50:30.080Z,100944.97
2023-06-11T15:52:57.109Z,100951.28
2023-06-11T15:55:24.260Z,100938.00
2023-06-11T15:57:51.702Z,100940.56
2023-06-11T16:00:19.195Z,100938.84
2023-06-11T16:02:46.585Z,100938.88
2023-06-11T16:05:14.405Z,100945.81
2023-06-11T16:07:44.669Z,100936.78
2023-06-11T16:10:14.419Z,100931.28
2023-06-11T16:12:44.254Z,100928.56
2023-06-11T16:15:12.061Z,100934.25
2023-06-11T16:17:39.500Z,100928.34
2023-06-11T16:20:07.036Z,100923.72
2023-06-11T16:22:34.112Z,100924.56
2023-06-11T16:25:01.148Z,100921.81
2023-06-11T16:27:28.235Z,100914.03
2023-06-11T16:29:55.452Z,100926.25
2023-06-11T16:32:22.723Z,100926.66
2023-06-11T16:34:52.590Z,100931.31
2023-06-11T16:37:19.832Z,100926.66
2023-06-11T16:39:46.791Z,100925.59
2023-06-11T16:42:13.966Z,100916.97
2023-06-11T16:44:41.296Z,100926.66
2023-06-11T16:47:08.548Z,100919.09
2023-06-11T16:49:35.851Z,100917.38
2023-06-11T16:52:04.843Z,100916.53
2023-06-11T16:54:32.235Z,100912.56
2023-06-11T16:56:59.467Z,100915.28
2023-06-11T16:59:31.822Z,100917.84
2023-06-11T17:01:59.032Z,100919.50
2023-06-11T17:04:28.788Z,100918.63
2023-06-11T17:06:55.870Z,100916.56
2023-06-11T17:09:22.905Z,100921.59
2023-06-11T17:11:49.976Z,100919.09
2023-06-11T17:14:17.120Z,100919.50
2023-06-11T17:16:44.083Z,100911.91
2023-06-11T17:19:11.065Z,100919.09
2023-06-11T17:21:39.467Z,100918.69
2023-06-11T17:24:06.850Z,100925.81
2023-06-11T17:26:34.571Z,100924.75
2023-06-11T17:29:03.498Z,100924.75
2023-06-11T17:31:30.535Z,100926.25
2023-06-11T17:33:57.573Z,100931.72
2023-06-11T17:36:24.561Z,100932.56
2023-06-11T17:38:51.563Z,100934.44
2023-06-11T17:41:18.532Z,100926.00
2023-06-11T17:43:48.431Z,100932.97
2023-06-11T17:46:16.892Z,100927.50
2023-06-11T17:48:44.202Z,100927.50
2023-06-11T17:51:11.833Z,100923.91
2023-06-11T17:53:39.231Z,100922.88
2023-06-11T17:56:06.491Z,100926.00
2023-06-11T17:58:34.347Z,100933.81
2023-06-11T18:01:01.364Z,100939.28
2023-06-11T18:03:28.386Z,100934.41
2023-06-11T18:05:55.431Z,100937.16
2023-06-11T18:08:24.830Z,100941.56
2023-06-11T18:10:52.386Z,100945.34
2023-06-11T18:13:19.602Z,100944.75
2023-06-11T18:15:47.034Z,100945.78
2023-06-11T18:18:16.296Z,100947.50
2023-06-11T18:20:43.552Z,100946.44
2023-06-11T18:23:10.887Z,100950.22
2023-06-11T18:25:38.047Z,100946.84
2023-06-11T18:28:05.365Z,100942.00
2023-06-11T18:30:36.101Z,100941.78
2023-06-11T18:33:03.308Z,100938.00
2023-06-11T18:35:33.535Z,100935.06
2023-06-11T18:38:01.136Z,100941.38
2023-06-11T18:40:28.174Z,100938.44
2023-06-11T18:42:55.393Z,100943.06
2023-06-11T18:45:22.469Z,100936.75
2023-06-11T18:47:52.557Z,100938.44
2023-06-11T18:50:19.636Z,100932.97
2023-06-11T18:52:49.520Z,100920.31
2023-06-11T18:55:20.541Z,100919.88
2023-06-11T18:57:48.126Z,100913.16
2023-06-11T19:00:18.446Z,100909.56
2023-06-11T19:02:45.788Z,100900.13
2023-06-11T19:05:12.933Z,100903.91
2023-06-11T19:07:40.991Z,100903.06
2023-06-11T19:10:14.300Z,100913.81
2023-06-11T19:12:42.406Z,100917.78
2023-06-11T19:15:09.929Z,100935.50
2023-06-11T19:17:40.612Z,100941.16
2023-06-11T19:20:09.213Z,100943.06
2023-06-11T19:22:37.051Z,100946.25
2023-06-11T19:25:05.087Z,100950.22
2023-06-11T19:27:32.496Z,100945.19
2023-06-11T19:30:03.981Z,100939.28
2023-06-11T19:32:31.283Z,100937.59
2023-06-11T19:34:58.255Z,100940.53
2023-06-11T19:37:25.261Z,100943.69
2023-06-11T19:39:53.133Z,100949.81
2023-06-11T19:42:20.251Z,100948.13
2023-06-11T19:44:47.311Z,100948.75
2023-06-11T19:47:14.386Z,100948.13
2023-06-11T19:49:41.791Z,100963.25
2023-06-11T19:52:08.868Z,100958.88
2023-06-11T19:54:50.424Z,100950.22
2023-06-11T19:57:21.976Z,100955.94
2023-06-11T19:59:50.106Z,100950.44
2023-06-11T20:02:19.761Z,100947.91
2023-06-11T20:04:47.691Z,100959.06
2023-06-11T20:07:17.165Z,100961.78
2023-06-11T20:09:46.565Z,100970.44
2023-06-11T20:12:17.343Z,100981.38
2023-06-11T20:14:44.840Z,100981.38
2023-06-11T20:17:12.042Z,100984.09
2023-06-11T20:19:40.094Z,100999.47
2023-06-11T20:22:07.365Z,101024.28
2023-06-11T20:24:34.797Z,101034.34
2023-06-11T20:27:01.871Z,101043.00
2023-06-11T20:29:29.014Z,101056.66
2023-06-11T20:31:56.584Z,101044.44
2023-06-11T20:34:23.726Z,101021.34
2023-06-11T20:36:50.791Z,101002.59
2023-06-11T20:39:18.339Z,100996.06
2023-06-11T20:41:45.391Z,100990.22
2023-06-11T20:44:12.439Z,100969.59
2023-06-11T20:46:39.613Z,100960.31
2023-06-11T20:49:07.409Z,100960.75
2023-06-11T20:51:35.433Z,100958.41
2023-06-11T20:54:02.477Z,100968.72
2023-06-11T20:56:30.105Z,100975.91
2023-06-11T20:58:57.163Z,100977.97
2023-06-11T21:01:24.242Z,100985.56
2023-06-11T21:03:55.029Z,100974.41
2023-06-11T21:06:22.296Z,100980.72
2023-06-11T21:08:49.847Z,100983.44
2023-06-11T21:11:17.636Z,100981.75
2023-06-11T21:13:45.247Z,100987.88
2023-06-11T21:16:14.045Z,100977.31
2023-06-11T21:18:54.010Z,100972.88
2023-06-11T21:21:21.015Z,100979.19
2023-06-11T21:23:48.630Z,100969.09
2023-06-11T21:26:27.396Z,100960.69
2023-06-11T21:28:54.741Z,100956.91
2023-06-11T21:31:22.927Z,100954.78
2023-06-11T21:33:52.812Z,100951.03
2023-06-11T21:36:25.913Z,100948.94
2023-06-11T21:38:56.463Z,100944.31
2023-06-11T21:41:23.550Z,100937.16
2023-06-11T21:43:50.449Z,100938.00
2023-06-11T21:46:18.152Z,100933.81
2023-06-11T21:48:49.343Z,100934.03
2023-06-11T21:51:17.732Z,100928.16
2023-06-11T21:57:30.574Z,100923.69
2023-06-11T21:59:58.260Z,100937.16
2023-06-11T22:02:25.226Z,100923.50
2023-06-11T22:04:53.997Z,100923.50
2023-06-11T22:07:22.548Z,100924.97
2023-06-11T22:10:07.975Z,100923.69
2023-06-11T22:12:41.953Z,100926.63
2023-06-11T22:15:19.922Z,100921.16
2023-06-11T22:18:05.758Z,100903.94
2023-06-11T22:20:36.914Z,100905.16
2023-06-11T22:23:45.768Z,100915.69
2023-06-11T22:26:18.455Z,100907.69
2023-06-11T22:28:48.981Z,100916.94
2023-06-11T22:31:19.806Z,100919.28
2023-06-11T22:33:49.932Z,100929.56
2023-06-11T22:36:17.322Z,100927.88
2023-06-11T22:38:45.301Z,100918.63
2023-06-11T22:41:15.792Z,100914.84
2023-06-11T22:43:56.752Z,100916.53
2023-06-11T22:46:26.923Z,100921.38
2023-06-11T22:48:54.296Z,100913.59
2023-06-11T22:51:22.650Z,100931.69
2023-06-11T22:53:49.976Z,100926.22
2023-06-11T22:56:26.914Z,100926.41
2023-06-11T22:58:54.369Z,100923.88
2023-06-11T23:01:22.063Z,100920.53
2023-06-11T23:03:52.714Z,100929.13
2023-06-11T23:06:19.942Z,100928.28
2023-06-11T23:08:49.984Z,100929.13
2023-06-11T23:11:17.259Z,100924.91
2023-06-11T23:13:44.570Z,100924.50
2023-06-11T23:16:11.932Z,100924.69
2023-06-11T23:18:39.104Z,100927.00
2023-06-11T23:21:07.267Z,100925.94
2023-06-11T23:23:38.870Z,100928.66
2023-06-11T23:26:10.981Z,100931.81
2023-06-11T23:28:38.639Z,100935.78
2023-06-11T23:31:08.888Z,100938.31
2023-06-11T23:33:36.797Z,100931.16
2023-06-11T23:36:04.147Z,100931.16
2023-06-11T23:38:31.481Z,100931.16
2023-06-11T23:40:58.827Z,100930.31
2023-06-11T23:43:26.019Z,100924.84
2023-06-11T23:45:53.333Z,100924.00
2023-06-11T23:48:20.668Z,100928.63
2023-06-11T23:50:50.983Z,100922.53
2023-06-11T23:53:18.288Z,100913.28
2023-06-11T23:55:45.437Z,100912.63
2023-06-11T23:58:20.813Z,100917.44
